Terminal Aerodrome Forecast
Issued by NWS Sioux Falls, SD

Home | Current Version | Previous Version | Text Only | Print | Product List | Glossary Off
Versions: 1 2 3 4 5 6 7 8 9 10 11 12 13 14 15 16 17 18

000
FTUS43 KFSD 291734
TAFHON
TAF
KHON 291734Z 2918/3018 17009KT P6SM SKC
     FM300000 16004KT P6SM BKN080
     FM300700 29009KT P6SM BKN050
     FM301100 31012KT P6SM SCT045
     FM301400 34014G22KT P6SM BKN025=

USA.gov is the U.S. government's official web portal to all federal, state and local government web resources and services.